sensor_id;sensor_type;location;lat;lon;timestamp;noise_LAeq;noise_LA_min;noise_LA_max;noise_LA01;noise_LA95
186;Laerm;55473;48.800;9.002;2023-04-03T00:00:52;37.61;32.35;55.29;;
186;Laerm;55473;48.800;9.002;2023-04-03T00:03:19;43.89;32.45;59.55;;
186;Laerm;55473;48.800;9.002;2023-04-03T00:05:46;38.76;32.19;54.92;;
186;Laerm;55473;48.800;9.002;2023-04-03T00:08:12;42.34;32.15;59.22;;
186;Laerm;55473;48.800;9.002;2023-04-03T00:10:38;35.66;32.38;50.46;;
186;Laerm;55473;48.800;9.002;2023-04-03T00:13:06;39.81;32.27;55.69;;
186;Laerm;55473;48.800;9.002;2023-04-03T00:15:33;34.97;32.22;47.41;;
186;Laerm;55473;48.800;9.002;2023-04-03T00:18:00;38.46;32.44;56.70;;
186;Laerm;55473;48.800;9.002;2023-04-03T00:20:26;36.18;32.13;51.43;;
186;Laerm;55473;48.800;9.002;2023-04-03T00:22:53;35.69;32.22;53.17;;
186;Laerm;55473;48.800;9.002;2023-04-03T00:25:19;35.88;32.08;50.23;;
186;Laerm;55473;48.800;9.002;2023-04-03T00:27:45;33.98;31.66;41.57;;
186;Laerm;55473;48.800;9.002;2023-04-03T00:30:16;35.00;32.40;47.95;;
186;Laerm;55473;48.800;9.002;2023-04-03T00:32:43;34.60;32.37;46.46;;
186;Laerm;55473;48.800;9.002;2023-04-03T00:35:09;33.88;31.94;39.37;;
186;Laerm;55473;48.800;9.002;2023-04-03T00:37:35;34.69;31.97;40.45;;
186;Laerm;55473;48.800;9.002;2023-04-03T00:40:03;35.28;31.94;51.50;;
186;Laerm;55473;48.800;9.002;2023-04-03T00:42:29;33.94;31.96;39.93;;
186;Laerm;55473;48.800;9.002;2023-04-03T00:47:21;34.43;32.01;46.77;;
186;Laerm;55473;48.800;9.002;2023-04-03T00:49:50;34.18;32.30;36.95;;
186;Laerm;55473;48.800;9.002;2023-04-03T00:52:22;34.62;31.99;57.98;;
186;Laerm;55473;48.800;9.002;2023-04-03T00:54:52;34.28;32.12;45.89;;
186;Laerm;55473;48.800;9.002;2023-04-03T00:57:22;34.37;32.38;46.19;;
186;Laerm;55473;48.800;9.002;2023-04-03T00:59:55;34.21;32.27;42.01;;
186;Laerm;55473;48.800;9.002;2023-04-03T01:02:23;34.42;31.74;45.79;;
186;Laerm;55473;48.800;9.002;2023-04-03T01:04:49;35.99;32.52;41.88;;
186;Laerm;55473;48.800;9.002;2023-04-03T01:07:17;34.53;32.14;41.89;;
186;Laerm;55473;48.800;9.002;2023-04-03T01:09:46;35.40;32.21;45.01;;
186;Laerm;55473;48.800;9.002;2023-04-03T01:14:54;35.39;32.04;44.96;;
186;Laerm;55473;48.800;9.002;2023-04-03T01:18:09;34.83;32.11;43.49;;
186;Laerm;55473;48.800;9.002;2023-04-03T01:24:20;34.68;32.27;43.32;;
186;Laerm;55473;48.800;9.002;2023-04-03T01:26:48;35.42;32.28;43.59;;
186;Laerm;55473;48.800;9.002;2023-04-03T01:29:15;34.67;32.28;44.33;;
186;Laerm;55473;48.800;9.002;2023-04-03T01:31:51;34.66;32.31;45.01;;
186;Laerm;55473;48.800;9.002;2023-04-03T01:34:18;34.79;32.16;42.73;;
186;Laerm;55473;48.800;9.002;2023-04-03T01:36:44;35.27;32.06;43.30;;
186;Laerm;55473;48.800;9.002;2023-04-03T01:39:11;34.50;32.16;43.22;;
186;Laerm;55473;48.800;9.002;2023-04-03T01:41:37;34.26;32.25;44.25;;
186;Laerm;55473;48.800;9.002;2023-04-03T01:44:03;34.66;31.60;42.15;;
186;Laerm;55473;48.800;9.002;2023-04-03T01:46:29;34.51;32.31;44.16;;
186;Laerm;55473;48.800;9.002;2023-04-03T01:48:55;35.34;32.07;43.80;;
186;Laerm;55473;48.800;9.002;2023-04-03T01:51:22;34.33;32.14;43.29;;
186;Laerm;55473;48.800;9.002;2023-04-03T01:53:48;34.66;32.21;42.65;;
186;Laerm;55473;48.800;9.002;2023-04-03T01:56:14;34.07;32.16;44.66;;
186;Laerm;55473;48.800;9.002;2023-04-03T01:58:40;36.16;32.22;45.48;;
186;Laerm;55473;48.800;9.002;2023-04-03T02:01:06;35.24;32.40;46.36;;
186;Laerm;55473;48.800;9.002;2023-04-03T02:03:32;41.23;32.49;52.28;;
186;Laerm;55473;48.800;9.002;2023-04-03T02:05:58;36.82;32.64;49.44;;
186;Laerm;55473;48.800;9.002;2023-04-03T02:08:25;40.17;31.84;50.74;;
186;Laerm;55473;48.800;9.002;2023-04-03T02:10:51;35.90;32.47;45.24;;
186;Laerm;55473;48.800;9.002;2023-04-03T02:13:18;35.62;32.39;48.05;;
186;Laerm;55473;48.800;9.002;2023-04-03T02:15:44;36.25;32.35;49.30;;
186;Laerm;55473;48.800;9.002;2023-04-03T02:18:12;35.83;32.22;48.57;;
186;Laerm;55473;48.800;9.002;2023-04-03T02:20:38;35.74;32.68;46.49;;
186;Laerm;55473;48.800;9.002;2023-04-03T02:23:03;36.32;32.86;50.22;;
186;Laerm;55473;48.800;9.002;2023-04-03T02:25:33;35.36;32.73;48.06;;
186;Laerm;55473;48.800;9.002;2023-04-03T02:27:59;36.81;32.92;47.96;;
186;Laerm;55473;48.800;9.002;2023-04-03T02:30:25;38.42;32.89;58.16;;
186;Laerm;55473;48.800;9.002;2023-04-03T02:32:52;35.88;32.96;49.88;;
186;Laerm;55473;48.800;9.002;2023-04-03T02:35:18;37.40;33.05;56.06;;
186;Laerm;55473;48.800;9.002;2023-04-03T02:37:44;35.89;32.89;44.41;;
186;Laerm;55473;48.800;9.002;2023-04-03T02:40:10;38.14;34.17;50.23;;
186;Laerm;55473;48.800;9.002;2023-04-03T02:42:37;37.85;34.45;44.26;;
186;Laerm;55473;48.800;9.002;2023-04-03T02:45:04;37.29;34.86;44.42;;
186;Laerm;55473;48.800;9.002;2023-04-03T02:47:30;44.78;35.09;58.05;;
186;Laerm;55473;48.800;9.002;2023-04-03T02:49:55;44.03;34.46;59.88;;
186;Laerm;55473;48.800;9.002;2023-04-03T02:52:21;38.25;34.63;49.65;;
186;Laerm;55473;48.800;9.002;2023-04-03T02:54:47;39.94;34.91;53.95;;
186;Laerm;55473;48.800;9.002;2023-04-03T02:57:13;41.00;35.28;54.36;;
186;Laerm;55473;48.800;9.002;2023-04-03T02:59:39;42.85;35.40;56.05;;
186;Laerm;55473;48.800;9.002;2023-04-03T03:02:08;40.46;34.84;53.26;;
186;Laerm;55473;48.800;9.002;2023-04-03T03:04:35;40.39;34.91;52.73;;
186;Laerm;55473;48.800;9.002;2023-04-03T03:07:02;40.04;34.06;52.57;;
186;Laerm;55473;48.800;9.002;2023-04-03T03:09:29;40.80;34.12;56.86;;
186;Laerm;55473;48.800;9.002;2023-04-03T03:11:56;43.68;34.11;62.13;;
186;Laerm;55473;48.800;9.002;2023-04-03T03:14:23;40.66;33.84;59.50;;
186;Laerm;55473;48.800;9.002;2023-04-03T03:16:49;41.82;34.80;51.63;;
186;Laerm;55473;48.800;9.002;2023-04-03T03:19:15;42.11;35.34;54.82;;
186;Laerm;55473;48.800;9.002;2023-04-03T03:21:41;41.89;34.39;52.72;;
186;Laerm;55473;48.800;9.002;2023-04-03T03:24:07;45.16;33.82;57.20;;
186;Laerm;55473;48.800;9.002;2023-04-03T03:26:33;43.89;34.31;56.47;;
186;Laerm;55473;48.800;9.002;2023-04-03T03:28:59;41.02;35.19;56.34;;
186;Laerm;55473;48.800;9.002;2023-04-03T03:31:25;42.49;34.94;57.96;;
186;Laerm;55473;48.800;9.002;2023-04-03T03:33:51;44.47;35.50;58.86;;
186;Laerm;55473;48.800;9.002;2023-04-03T03:36:17;49.56;35.57;72.21;;
186;Laerm;55473;48.800;9.002;2023-04-03T03:38:43;55.33;35.51;71.86;;
186;Laerm;55473;48.800;9.002;2023-04-03T03:41:09;46.56;35.47;66.06;;
186;Laerm;55473;48.800;9.002;2023-04-03T03:43:35;49.12;35.56;70.93;;
186;Laerm;55473;48.800;9.002;2023-04-03T03:46:01;53.14;36.00;69.72;;
186;Laerm;55473;48.800;9.002;2023-04-03T03:48:27;55.77;36.23;72.99;;
186;Laerm;55473;48.800;9.002;2023-04-03T03:50:52;55.65;36.38;71.46;;
186;Laerm;55473;48.800;9.002;2023-04-03T03:53:18;52.53;36.44;68.53;;
186;Laerm;55473;48.800;9.002;2023-04-03T03:55:45;58.61;37.20;73.79;;
186;Laerm;55473;48.800;9.002;2023-04-03T03:58:10;57.77;39.23;71.35;;
186;Laerm;55473;48.800;9.002;2023-04-03T04:00:36;55.98;38.08;74.19;;
186;Laerm;55473;48.800;9.002;2023-04-03T04:03:02;59.17;38.92;68.68;;
186;Laerm;55473;48.800;9.002;2023-04-03T04:05:28;56.50;39.27;68.56;;
186;Laerm;55473;48.800;9.002;2023-04-03T04:07:54;57.44;36.58;70.10;;
186;Laerm;55473;48.800;9.002;2023-04-03T04:10:20;55.60;37.85;72.21;;
186;Laerm;55473;48.800;9.002;2023-04-03T04:12:46;56.09;38.11;70.51;;
186;Laerm;55473;48.800;9.002;2023-04-03T04:15:14;58.00;39.56;69.41;;
186;Laerm;55473;48.800;9.002;2023-04-03T04:17:40;55.16;38.93;69.88;;
186;Laerm;55473;48.800;9.002;2023-04-03T04:20:06;61.37;40.38;77.44;;
186;Laerm;55473;48.800;9.002;2023-04-03T04:22:32;58.51;39.62;77.65;;
186;Laerm;55473;48.800;9.002;2023-04-03T04:24:58;58.83;38.44;74.43;;
186;Laerm;55473;48.800;9.002;2023-04-03T04:27:24;56.25;40.15;69.34;;
186;Laerm;55473;48.800;9.002;2023-04-03T04:29:50;59.37;39.60;76.88;;
186;Laerm;55473;48.800;9.002;2023-04-03T04:32:16;53.60;39.96;72.34;;
186;Laerm;55473;48.800;9.002;2023-04-03T04:34:42;56.03;40.11;71.03;;
186;Laerm;55473;48.800;9.002;2023-04-03T04:37:08;50.74;40.16;64.87;;
186;Laerm;55473;48.800;9.002;2023-04-03T04:39:34;52.97;39.07;66.69;;
186;Laerm;55473;48.800;9.002;2023-04-03T04:42:00;53.21;40.11;69.51;;
186;Laerm;55473;48.800;9.002;2023-04-03T04:44:26;51.41;39.58;69.45;;
186;Laerm;55473;48.800;9.002;2023-04-03T04:46:52;49.90;39.28;58.89;;
186;Laerm;55473;48.800;9.002;2023-04-03T04:49:18;48.50;40.70;58.47;;
186;Laerm;55473;48.800;9.002;2023-04-03T04:51:44;47.04;37.90;59.36;;
186;Laerm;55473;48.800;9.002;2023-04-03T04:54:09;48.08;37.56;65.73;;
186;Laerm;55473;48.800;9.002;2023-04-03T04:56:35;49.18;38.00;70.53;;
186;Laerm;55473;48.800;9.002;2023-04-03T04:59:01;55.68;39.49;76.55;;
186;Laerm;55473;48.800;9.002;2023-04-03T05:01:27;45.20;38.10;55.59;;
186;Laerm;55473;48.800;9.002;2023-04-03T05:03:54;47.76;41.05;58.33;;
186;Laerm;55473;48.800;9.002;2023-04-03T05:06:20;47.64;38.48;57.97;;
186;Laerm;55473;48.800;9.002;2023-04-03T05:08:46;52.02;40.18;70.23;;
186;Laerm;55473;48.800;9.002;2023-04-03T05:11:12;51.87;38.22;70.59;;
186;Laerm;55473;48.800;9.002;2023-04-03T05:13:38;44.76;37.65;55.64;;
186;Laerm;55473;48.800;9.002;2023-04-03T05:16:04;46.84;36.96;66.57;;
186;Laerm;55473;48.800;9.002;2023-04-03T05:18:30;49.75;38.16;64.94;;
186;Laerm;55473;48.800;9.002;2023-04-03T05:20:56;49.84;37.58;66.42;;
186;Laerm;55473;48.800;9.002;2023-04-03T05:23:23;57.30;39.29;68.14;;
186;Laerm;55473;48.800;9.002;2023-04-03T05:25:49;45.90;38.88;64.77;;
186;Laerm;55473;48.800;9.002;2023-04-03T05:28:15;47.20;39.17;60.59;;
186;Laerm;55473;48.800;9.002;2023-04-03T05:30:41;55.71;39.68;71.29;;
186;Laerm;55473;48.800;9.002;2023-04-03T05:33:07;60.12;41.18;74.56;;
186;Laerm;55473;48.800;9.002;2023-04-03T05:35:37;57.21;40.15;73.94;;
186;Laerm;55473;48.800;9.002;2023-04-03T05:38:07;50.82;38.85;69.58;;
186;Laerm;55473;48.800;9.002;2023-04-03T05:40:33;47.30;39.08;67.11;;
186;Laerm;55473;48.800;9.002;2023-04-03T05:42:59;53.26;39.97;65.60;;
186;Laerm;55473;48.800;9.002;2023-04-03T05:45:24;53.99;39.78;65.27;;
186;Laerm;55473;48.800;9.002;2023-04-03T05:47:50;48.22;38.85;66.73;;
186;Laerm;55473;48.800;9.002;2023-04-03T05:50:16;49.20;39.57;68.11;;
186;Laerm;55473;48.800;9.002;2023-04-03T05:52:46;47.96;38.11;65.56;;
186;Laerm;55473;48.800;9.002;2023-04-03T05:55:14;44.20;38.38;59.08;;
186;Laerm;55473;48.800;9.002;2023-04-03T05:57:40;46.28;39.68;58.80;;
186;Laerm;55473;48.800;9.002;2023-04-03T06:00:12;48.05;37.66;62.10;;
186;Laerm;55473;48.800;9.002;2023-04-03T06:02:40;46.57;37.46;62.42;;
186;Laerm;55473;48.800;9.002;2023-04-03T06:05:08;48.18;37.80;67.77;;
186;Laerm;55473;48.800;9.002;2023-04-03T06:07:35;49.75;38.50;66.73;;
186;Laerm;55473;48.800;9.002;2023-04-03T06:10:04;46.34;38.43;66.17;;
186;Laerm;55473;48.800;9.002;2023-04-03T06:12:31;44.69;37.96;63.25;;
186;Laerm;55473;48.800;9.002;2023-04-03T06:14:56;45.34;38.61;67.02;;
186;Laerm;55473;48.800;9.002;2023-04-03T06:17:22;48.42;40.44;61.17;;
186;Laerm;55473;48.800;9.002;2023-04-03T06:19:49;51.70;38.80;69.07;;
186;Laerm;55473;48.800;9.002;2023-04-03T06:22:15;54.55;38.79;63.49;;
186;Laerm;55473;48.800;9.002;2023-04-03T06:24:41;44.98;37.60;66.18;;
186;Laerm;55473;48.800;9.002;2023-04-03T06:27:07;46.08;37.30;63.78;;
186;Laerm;55473;48.800;9.002;2023-04-03T06:29:33;54.83;38.97;70.45;;
186;Laerm;55473;48.800;9.002;2023-04-03T06:31:59;44.50;38.88;58.66;;
186;Laerm;55473;48.800;9.002;2023-04-03T06:34:25;47.86;38.88;60.37;;
186;Laerm;55473;48.800;9.002;2023-04-03T06:36:51;48.96;39.42;62.42;;
186;Laerm;55473;48.800;9.002;2023-04-03T06:39:20;49.95;37.54;67.90;;
186;Laerm;55473;48.800;9.002;2023-04-03T06:41:47;46.77;38.78;64.62;;
186;Laerm;55473;48.800;9.002;2023-04-03T06:44:13;51.72;41.67;72.55;;
186;Laerm;55473;48.800;9.002;2023-04-03T06:46:43;46.43;39.00;59.34;;
186;Laerm;55473;48.800;9.002;2023-04-03T06:49:09;49.26;39.10;63.19;;
186;Laerm;55473;48.800;9.002;2023-04-03T06:51:36;43.36;38.57;53.61;;
186;Laerm;55473;48.800;9.002;2023-04-03T06:54:05;44.80;38.88;54.54;;
186;Laerm;55473;48.800;9.002;2023-04-03T06:56:32;46.29;39.40;61.55;;
186;Laerm;55473;48.800;9.002;2023-04-03T06:58:58;47.86;39.89;65.32;;
186;Laerm;55473;48.800;9.002;2023-04-03T07:01:28;45.18;38.49;57.55;;
186;Laerm;55473;48.800;9.002;2023-04-03T07:03:57;45.52;38.82;57.42;;
186;Laerm;55473;48.800;9.002;2023-04-03T07:06:23;47.73;40.71;61.16;;
186;Laerm;55473;48.800;9.002;2023-04-03T07:08:53;46.78;40.64;61.18;;
186;Laerm;55473;48.800;9.002;2023-04-03T07:11:19;45.03;41.28;52.93;;
186;Laerm;55473;48.800;9.002;2023-04-03T07:13:46;48.10;40.04;66.36;;
186;Laerm;55473;48.800;9.002;2023-04-03T07:16:11;48.77;40.17;63.77;;
186;Laerm;55473;48.800;9.002;2023-04-03T07:18:38;47.31;41.03;55.35;;
186;Laerm;55473;48.800;9.002;2023-04-03T07:21:04;46.74;40.18;57.06;;
186;Laerm;55473;48.800;9.002;2023-04-03T07:23:30;47.58;40.96;58.91;;
186;Laerm;55473;48.800;9.002;2023-04-03T07:25:56;47.86;41.42;61.27;;
186;Laerm;55473;48.800;9.002;2023-04-03T07:28:22;46.86;37.81;67.16;;
186;Laerm;55473;48.800;9.002;2023-04-03T07:31:04;47.39;38.72;60.79;;
186;Laerm;55473;48.800;9.002;2023-04-03T07:33:32;50.47;39.69;65.62;;
186;Laerm;55473;48.800;9.002;2023-04-03T07:35:59;46.52;38.65;63.93;;
186;Laerm;55473;48.800;9.002;2023-04-03T07:38:25;46.65;41.15;60.89;;
186;Laerm;55473;48.800;9.002;2023-04-03T07:40:51;49.87;41.95;64.95;;
186;Laerm;55473;48.800;9.002;2023-04-03T07:43:20;48.60;40.60;67.77;;
186;Laerm;55473;48.800;9.002;2023-04-03T07:45:49;51.32;42.17;69.73;;
186;Laerm;55473;48.800;9.002;2023-04-03T07:48:20;49.81;41.89;64.08;;
186;Laerm;55473;48.800;9.002;2023-04-03T07:50:46;47.85;41.85;59.90;;
186;Laerm;55473;48.800;9.002;2023-04-03T07:53:12;49.92;40.15;69.68;;
186;Laerm;55473;48.800;9.002;2023-04-03T07:55:38;47.36;39.38;62.13;;
186;Laerm;55473;48.800;9.002;2023-04-03T07:58:14;48.51;40.02;64.95;;
186;Laerm;55473;48.800;9.002;2023-04-03T08:00:41;53.53;41.48;70.34;;
186;Laerm;55473;48.800;9.002;2023-04-03T08:03:10;54.26;40.20;73.98;;
186;Laerm;55473;48.800;9.002;2023-04-03T08:05:39;48.16;40.59;68.37;;
186;Laerm;55473;48.800;9.002;2023-04-03T08:08:06;51.71;42.44;68.85;;
186;Laerm;55473;48.800;9.002;2023-04-03T08:10:33;50.00;40.89;69.01;;
186;Laerm;55473;48.800;9.002;2023-04-03T08:13:00;48.27;42.69;64.01;;
186;Laerm;55473;48.800;9.002;2023-04-03T08:15:26;46.23;39.99;58.75;;
186;Laerm;55473;48.800;9.002;2023-04-03T08:17:53;49.18;40.40;69.70;;
186;Laerm;55473;48.800;9.002;2023-04-03T08:20:19;51.93;39.67;75.52;;
186;Laerm;55473;48.800;9.002;2023-04-03T08:22:46;44.61;37.33;61.51;;
186;Laerm;55473;48.800;9.002;2023-04-03T08:25:12;45.66;37.80;58.13;;
186;Laerm;55473;48.800;9.002;2023-04-03T08:27:38;55.26;39.39;68.89;;
186;Laerm;55473;48.800;9.002;2023-04-03T08:30:05;50.30;40.50;69.33;;
186;Laerm;55473;48.800;9.002;2023-04-03T08:32:33;47.60;39.96;63.44;;
186;Laerm;55473;48.800;9.002;2023-04-03T08:35:00;48.20;38.64;63.58;;
186;Laerm;55473;48.800;9.002;2023-04-03T08:37:26;49.55;39.80;63.43;;
186;Laerm;55473;48.800;9.002;2023-04-03T08:39:52;53.94;39.93;68.58;;
186;Laerm;55473;48.800;9.002;2023-04-03T08:48:07;51.41;40.42;65.75;;
186;Laerm;55473;48.800;9.002;2023-04-03T08:50:41;45.81;39.37;60.21;;
186;Laerm;55473;48.800;9.002;2023-04-03T08:53:25;45.19;40.32;61.40;;
186;Laerm;55473;48.800;9.002;2023-04-03T08:55:55;50.05;39.70;67.31;;
186;Laerm;55473;48.800;9.002;2023-04-03T08:58:25;50.43;41.34;63.26;;
186;Laerm;55473;48.800;9.002;2023-04-03T09:01:14;48.44;37.63;63.19;;
186;Laerm;55473;48.800;9.002;2023-04-03T09:03:42;50.72;41.65;61.50;;
186;Laerm;55473;48.800;9.002;2023-04-03T09:06:20;47.61;40.06;61.34;;
186;Laerm;55473;48.800;9.002;2023-04-03T09:11:55;50.20;40.14;65.40;;
186;Laerm;55473;48.800;9.002;2023-04-03T09:20:31;49.24;41.43;62.86;;
186;Laerm;55473;48.800;9.002;2023-04-03T09:25:45;47.24;38.59;60.44;;
186;Laerm;55473;48.800;9.002;2023-04-03T09:28:11;48.70;38.64;63.19;;
186;Laerm;55473;48.800;9.002;2023-04-03T09:30:38;44.53;38.71;56.86;;
186;Laerm;55473;48.800;9.002;2023-04-03T09:33:04;46.22;38.66;56.43;;
186;Laerm;55473;48.800;9.002;2023-04-03T09:35:35;46.29;38.90;57.62;;
186;Laerm;55473;48.800;9.002;2023-04-03T09:40:44;42.65;37.59;58.31;;
186;Laerm;55473;48.800;9.002;2023-04-03T09:45:45;55.03;39.57;74.15;;
186;Laerm;55473;48.800;9.002;2023-04-03T09:50:58;50.08;39.13;67.72;;
186;Laerm;55473;48.800;9.002;2023-04-03T09:53:37;46.97;39.52;60.67;;
186;Laerm;55473;48.800;9.002;2023-04-03T09:56:21;47.52;39.17;58.95;;
186;Laerm;55473;48.800;9.002;2023-04-03T09:59:12;48.28;38.08;63.46;;
186;Laerm;55473;48.800;9.002;2023-04-03T10:01:56;46.73;39.30;58.25;;
186;Laerm;55473;48.800;9.002;2023-04-03T10:04:23;48.83;40.46;59.80;;
186;Laerm;55473;48.800;9.002;2023-04-03T10:06:53;47.21;39.78;59.53;;
186;Laerm;55473;48.800;9.002;2023-04-03T10:09:30;44.59;38.65;58.76;;
186;Laerm;55473;48.800;9.002;2023-04-03T10:12:12;44.67;38.50;57.63;;
186;Laerm;55473;48.800;9.002;2023-04-03T10:14:59;45.36;39.83;58.52;;
186;Laerm;55473;48.800;9.002;2023-04-03T10:17:53;49.93;39.97;66.87;;
186;Laerm;55473;48.800;9.002;2023-04-03T10:20:33;48.75;40.21;67.82;;
186;Laerm;55473;48.800;9.002;2023-04-03T10:23:23;46.47;38.92;57.13;;
186;Laerm;55473;48.800;9.002;2023-04-03T10:31:25;50.17;39.89;64.40;;
186;Laerm;55473;48.800;9.002;2023-04-03T10:40:01;47.91;38.82;61.63;;
186;Laerm;55473;48.800;9.002;2023-04-03T10:42:39;47.12;39.88;65.67;;
186;Laerm;55473;48.800;9.002;2023-04-03T10:54:05;48.83;40.49;63.57;;
186;Laerm;55473;48.800;9.002;2023-04-03T10:57:00;46.28;39.56;63.94;;
186;Laerm;55473;48.800;9.002;2023-04-03T10:59:46;51.34;40.27;65.11;;
186;Laerm;55473;48.800;9.002;2023-04-03T11:02:32;46.71;38.62;62.06;;
186;Laerm;55473;48.800;9.002;2023-04-03T11:07:55;50.76;40.98;65.29;;
186;Laerm;55473;48.800;9.002;2023-04-03T11:13:21;48.23;41.03;61.62;;
186;Laerm;55473;48.800;9.002;2023-04-03T11:15:49;50.67;40.22;62.78;;
186;Laerm;55473;48.800;9.002;2023-04-03T11:18:32;51.92;40.72;62.31;;
186;Laerm;55473;48.800;9.002;2023-04-03T11:21:32;51.57;39.95;65.20;;
186;Laerm;55473;48.800;9.002;2023-04-03T11:23:58;44.03;38.10;59.53;;
186;Laerm;55473;48.800;9.002;2023-04-03T11:26:31;46.80;37.81;63.13;;
186;Laerm;55473;48.800;9.002;2023-04-03T11:29:14;47.74;37.67;59.63;;
186;Laerm;55473;48.800;9.002;2023-04-03T11:34:57;49.27;39.85;60.52;;
186;Laerm;55473;48.800;9.002;2023-04-03T11:37:39;47.95;38.88;62.92;;
186;Laerm;55473;48.800;9.002;2023-04-03T11:40:25;47.56;37.09;63.80;;
186;Laerm;55473;48.800;9.002;2023-04-03T11:43:29;46.57;38.94;61.27;;
186;Laerm;55473;48.800;9.002;2023-04-03T11:46:05;46.21;38.96;58.52;;
186;Laerm;55473;48.800;9.002;2023-04-03T11:53:52;53.60;40.17;70.99;;
186;Laerm;55473;48.800;9.002;2023-04-03T12:01:57;47.14;37.99;60.03;;
186;Laerm;55473;48.800;9.002;2023-04-03T12:04:27;49.60;39.15;64.65;;
186;Laerm;55473;48.800;9.002;2023-04-03T12:07:18;45.34;39.55;59.30;;
186;Laerm;55473;48.800;9.002;2023-04-03T12:15:22;49.13;41.10;62.07;;
186;Laerm;55473;48.800;9.002;2023-04-03T12:17:48;50.37;40.80;63.26;;
186;Laerm;55473;48.800;9.002;2023-04-03T12:20:56;56.83;39.10;80.00;;
186;Laerm;55473;48.800;9.002;2023-04-03T12:26:43;45.16;38.43;60.33;;
186;Laerm;55473;48.800;9.002;2023-04-03T12:29:20;53.06;40.07;72.37;;
186;Laerm;55473;48.800;9.002;2023-04-03T12:32:55;50.42;38.97;77.14;;
186;Laerm;55473;48.800;9.002;2023-04-03T12:41:38;46.62;38.91;60.47;;
186;Laerm;55473;48.800;9.002;2023-04-03T12:47:29;51.10;38.78;66.09;;
186;Laerm;55473;48.800;9.002;2023-04-03T12:50:00;51.36;39.57;67.33;;
186;Laerm;55473;48.800;9.002;2023-04-03T12:52:50;45.94;38.02;66.89;;
186;Laerm;55473;48.800;9.002;2023-04-03T12:55:20;49.18;38.10;65.64;;
186;Laerm;55473;48.800;9.002;2023-04-03T12:57:47;46.35;38.94;59.76;;
186;Laerm;55473;48.800;9.002;2023-04-03T13:00:42;46.61;37.51;62.44;;
186;Laerm;55473;48.800;9.002;2023-04-03T13:03:24;47.93;37.99;59.81;;
186;Laerm;55473;48.800;9.002;2023-04-03T13:06:00;47.65;40.49;61.71;;
186;Laerm;55473;48.800;9.002;2023-04-03T13:08:27;49.39;41.85;60.84;;
186;Laerm;55473;48.800;9.002;2023-04-03T13:11:06;49.49;41.51;62.07;;
186;Laerm;55473;48.800;9.002;2023-04-03T13:13:36;48.15;39.40;61.88;;
186;Laerm;55473;48.800;9.002;2023-04-03T13:16:11;47.72;38.78;61.76;;
186;Laerm;55473;48.800;9.002;2023-04-03T13:18:39;49.56;40.04;61.89;;
186;Laerm;55473;48.800;9.002;2023-04-03T13:21:17;49.50;38.88;61.90;;
186;Laerm;55473;48.800;9.002;2023-04-03T13:23:50;45.36;38.45;59.36;;
186;Laerm;55473;48.800;9.002;2023-04-03T13:26:20;45.12;39.59;58.98;;
186;Laerm;55473;48.800;9.002;2023-04-03T13:28:47;49.13;41.12;62.03;;
186;Laerm;55473;48.800;9.002;2023-04-03T13:31:19;44.83;38.17;59.47;;
186;Laerm;55473;48.800;9.002;2023-04-03T13:36:31;48.99;39.07;62.18;;
186;Laerm;55473;48.800;9.002;2023-04-03T13:41:48;46.08;38.19;55.26;;
186;Laerm;55473;48.800;9.002;2023-04-03T13:46:43;48.67;40.43;64.66;;
186;Laerm;55473;48.800;9.002;2023-04-03T13:49:32;47.65;39.75;61.39;;
186;Laerm;55473;48.800;9.002;2023-04-03T13:52:00;48.88;39.47;65.09;;
186;Laerm;55473;48.800;9.002;2023-04-03T13:54:37;44.49;37.75;56.81;;
186;Laerm;55473;48.800;9.002;2023-04-03T13:57:14;49.66;39.61;69.29;;
186;Laerm;55473;48.800;9.002;2023-04-03T13:59:42;47.44;40.17;57.37;;
186;Laerm;55473;48.800;9.002;2023-04-03T14:07:13;50.81;37.61;62.59;;
186;Laerm;55473;48.800;9.002;2023-04-03T14:09:42;47.26;37.56;60.13;;
186;Laerm;55473;48.800;9.002;2023-04-03T14:12:30;52.14;39.93;71.32;;
186;Laerm;55473;48.800;9.002;2023-04-03T14:15:03;51.08;40.61;65.50;;
186;Laerm;55473;48.800;9.002;2023-04-03T14:17:29;49.52;39.99;62.29;;
186;Laerm;55473;48.800;9.002;2023-04-03T14:19:58;50.52;42.03;66.62;;
186;Laerm;55473;48.800;9.002;2023-04-03T14:22:32;49.56;40.15;63.56;;
186;Laerm;55473;48.800;9.002;2023-04-03T14:24:59;46.83;38.97;64.61;;
186;Laerm;55473;48.800;9.002;2023-04-03T14:27:40;46.00;38.86;61.55;;
186;Laerm;55473;48.800;9.002;2023-04-03T14:30:17;48.42;39.38;61.09;;
186;Laerm;55473;48.800;9.002;2023-04-03T14:32:43;47.81;39.70;63.03;;
186;Laerm;55473;48.800;9.002;2023-04-03T14:35:11;47.08;39.47;61.59;;
186;Laerm;55473;48.800;9.002;2023-04-03T14:37:37;52.08;39.20;64.56;;
186;Laerm;55473;48.800;9.002;2023-04-03T14:40:06;49.10;40.13;62.72;;
186;Laerm;55473;48.800;9.002;2023-04-03T14:42:36;50.13;39.43;71.05;;
186;Laerm;55473;48.800;9.002;2023-04-03T14:45:09;46.02;39.33;60.54;;
186;Laerm;55473;48.800;9.002;2023-04-03T14:47:54;49.43;39.10;61.80;;
186;Laerm;55473;48.800;9.002;2023-04-03T14:50:25;51.89;41.16;75.54;;
186;Laerm;55473;48.800;9.002;2023-04-03T14:52:56;49.43;38.24;72.20;;
186;Laerm;55473;48.800;9.002;2023-04-03T14:55:25;55.77;38.24;83.67;;
186;Laerm;55473;48.800;9.002;2023-04-03T14:57:52;50.03;39.57;68.11;;
186;Laerm;55473;48.800;9.002;2023-04-03T15:00:21;51.02;39.20;67.68;;
186;Laerm;55473;48.800;9.002;2023-04-03T15:02:48;47.14;39.25;61.92;;
186;Laerm;55473;48.800;9.002;2023-04-03T15:05:14;48.31;38.63;65.48;;
186;Laerm;55473;48.800;9.002;2023-04-03T15:07:49;48.99;39.95;58.97;;
186;Laerm;55473;48.800;9.002;2023-04-03T15:10:21;56.37;40.69;75.45;;
186;Laerm;55473;48.800;9.002;2023-04-03T15:12:48;49.65;40.30;71.37;;
186;Laerm;55473;48.800;9.002;2023-04-03T15:15:17;48.94;38.50;66.29;;
186;Laerm;55473;48.800;9.002;2023-04-03T15:17:44;54.69;40.56;73.52;;
186;Laerm;55473;48.800;9.002;2023-04-03T15:20:18;48.06;38.25;61.16;;
186;Laerm;55473;48.800;9.002;2023-04-03T15:22:45;50.17;39.43;71.24;;
186;Laerm;55473;48.800;9.002;2023-04-03T15:25:11;51.31;38.86;75.90;;
186;Laerm;55473;48.800;9.002;2023-04-03T15:27:38;49.32;39.50;64.38;;
186;Laerm;55473;48.800;9.002;2023-04-03T15:30:08;49.46;39.23;62.55;;
186;Laerm;55473;48.800;9.002;2023-04-03T15:32:36;47.99;40.17;63.63;;
186;Laerm;55473;48.800;9.002;2023-04-03T15:35:02;43.98;38.50;58.62;;
186;Laerm;55473;48.800;9.002;2023-04-03T15:37:28;54.14;37.98;66.77;;
186;Laerm;55473;48.800;9.002;2023-04-03T15:39:54;52.80;38.35;68.14;;
186;Laerm;55473;48.800;9.002;2023-04-03T15:42:20;55.74;40.20;66.93;;
186;Laerm;55473;48.800;9.002;2023-04-03T15:44:46;49.26;37.89;63.32;;
186;Laerm;55473;48.800;9.002;2023-04-03T15:47:12;47.67;38.16;64.28;;
186;Laerm;55473;48.800;9.002;2023-04-03T15:49:39;45.88;38.79;60.55;;
186;Laerm;55473;48.800;9.002;2023-04-03T15:52:05;51.04;39.59;63.49;;
186;Laerm;55473;48.800;9.002;2023-04-03T15:54:31;55.06;38.56;70.42;;
186;Laerm;55473;48.800;9.002;2023-04-03T15:56:57;49.08;38.97;69.51;;
186;Laerm;55473;48.800;9.002;2023-04-03T15:59:23;53.62;40.73;68.04;;
186;Laerm;55473;48.800;9.002;2023-04-03T16:01:51;47.92;39.68;70.48;;
186;Laerm;55473;48.800;9.002;2023-04-03T16:04:18;49.44;41.29;61.92;;
186;Laerm;55473;48.800;9.002;2023-04-03T16:06:46;49.02;38.42;65.32;;
186;Laerm;55473;48.800;9.002;2023-04-03T16:09:13;51.98;38.10;68.00;;